createdAt,value
2022-08-10T00:00:22.579Z,99922.06
2022-08-10T00:01:24.994Z,99926.19
2022-08-10T00:02:27.682Z,99922.56
2022-08-10T00:03:30.248Z,99922.56
2022-08-10T00:04:32.484Z,99933.44
2022-08-10T00:05:43.576Z,99928.22
2022-08-10T00:06:55.749Z,99926.91
2022-08-10T00:07:58.135Z,99930.78
2022-08-10T00:09:00.387Z,99928.63
2022-08-10T00:10:03.737Z,99932.69
2022-08-10T00:11:06.109Z,99931.19
2022-08-10T00:12:19.544Z,99929.91
2022-08-10T00:13:23.900Z,99935.78
2022-08-10T00:14:26.190Z,99932.47
2022-08-10T00:15:52.583Z,99928.72
2022-08-10T00:16:50.815Z,99924.69
2022-08-10T00:17:53.560Z,99926.28
2022-08-10T00:18:55.788Z,99929.06
2022-08-10T00:20:03.830Z,99934.50
2022-08-10T00:21:11.144Z,99917.00
2022-08-10T00:22:16.882Z,99936.63
2022-08-10T00:23:19.656Z,99934.06
2022-08-10T00:24:21.940Z,99927.25
2022-08-10T00:25:24.153Z,99922.63
2022-08-10T00:26:26.540Z,99927.53
2022-08-10T00:28:01.658Z,99931.28
2022-08-10T00:29:06.756Z,99930.31
2022-08-10T00:30:12.772Z,99918.25
2022-08-10T00:31:15.123Z,99929.88
2022-08-10T00:32:17.382Z,99924.56
2022-08-10T00:33:20.844Z,99933.41
2022-08-10T00:34:23.129Z,99932.63
2022-08-10T00:35:25.672Z,99928.28
2022-08-10T00:36:28.157Z,99929.13
2022-08-10T00:37:34.377Z,99930.94
2022-08-10T00:38:37.578Z,99929.00
2022-08-10T00:39:40.210Z,99925.41
2022-08-10T00:40:42.983Z,99919.31
2022-08-10T00:41:45.266Z,99924.56
2022-08-10T00:42:47.648Z,99932.63
2022-08-10T00:43:49.923Z,99932.53
2022-08-10T00:44:53.538Z,99927.50
2022-08-10T00:45:58.904Z,99937.00
2022-08-10T00:47:02.534Z,99936.25
2022-08-10T00:48:05.144Z,99934.66
2022-08-10T00:49:07.560Z,99935.72
2022-08-10T00:50:10.137Z,99932.31
2022-08-10T00:51:12.761Z,99931.25
2022-08-10T00:52:17.320Z,99929.84
2022-08-10T00:53:19.576Z,99935.06
2022-08-10T00:54:24.367Z,99927.75
2022-08-10T00:55:27.615Z,99926.25
2022-08-10T00:56:38.377Z,99929.00
2022-08-10T00:57:55.047Z,99924.41
2022-08-10T00:58:57.944Z,99934.88
2022-08-10T01:00:00.893Z,99928.66
2022-08-10T01:01:03.439Z,99925.47
2022-08-10T01:02:09.841Z,99925.38
2022-08-10T01:03:15.113Z,99928.25
2022-08-10T01:04:54.450Z,99931.88
2022-08-10T01:06:04.686Z,99931.97
2022-08-10T01:07:28.192Z,99925.69
2022-08-10T01:08:30.384Z,99924.06
2022-08-10T01:09:55.702Z,99924.84
2022-08-10T01:12:39.888Z,99917.16
2022-08-10T01:12:47.418Z,99923.44
2022-08-10T01:14:01.328Z,99921.84
2022-08-10T01:15:11.221Z,99914.69
2022-08-10T01:16:37.322Z,99918.22
2022-08-10T01:17:49.887Z,99915.13
2022-08-10T01:19:19.038Z,99920.44
2022-08-10T01:20:33.218Z,99910.75
2022-08-10T01:22:07.609Z,99912.56
2022-08-10T01:23:43.500Z,99918.75
2022-08-10T01:25:04.468Z,99911.00
2022-08-10T01:26:32.760Z,99923.78
2022-08-10T01:28:08.125Z,99922.06
2022-08-10T01:29:35.217Z,99918.84
2022-08-10T01:30:38.623Z,99919.03
2022-08-10T01:31:44.944Z,99922.75
2022-08-10T01:32:52.102Z,99912.03
2022-08-10T01:34:02.659Z,99919.56
2022-08-10T01:35:24.407Z,99917.97
2022-08-10T01:36:35.307Z,99927.00
2022-08-10T01:37:43.838Z,99922.59
2022-08-10T01:38:57.884Z,99915.69
2022-08-10T01:40:04.495Z,99922.84
2022-08-10T01:41:12.273Z,99925.97
2022-08-10T01:42:18.851Z,99920.38
2022-08-10T01:43:23.634Z,99912.66
2022-08-10T01:44:44.930Z,99918.00
2022-08-10T01:45:53.721Z,99925.41
2022-08-10T01:47:22.375Z,99919.38
2022-08-10T01:48:34.362Z,99923.91
2022-08-10T01:49:36.719Z,99927.72
2022-08-10T01:51:00.270Z,99915.47
2022-08-10T01:52:05.412Z,99931.34
2022-08-10T01:53:15.806Z,99933.13
2022-08-10T01:54:24.440Z,99918.53
2022-08-10T01:55:27.954Z,99923.00
2022-08-10T01:56:36.568Z,99929.25
2022-08-10T01:57:42.100Z,99936.56
2022-08-10T01:58:46.454Z,99939.34
2022-08-10T01:59:54.515Z,99940.09
2022-08-10T02:01:04.483Z,99935.25
2022-08-10T02:02:10.090Z,99931.34
2022-08-10T02:03:14.559Z,99930.63
2022-08-10T02:04:19.544Z,99927.97
2022-08-10T02:05:24.846Z,99932.41
2022-08-10T02:06:30.827Z,99925.47
2022-08-10T02:07:37.858Z,99933.38
2022-08-10T02:08:42.563Z,99934.41
2022-08-10T02:09:48.734Z,99933.38
2022-08-10T02:10:52.765Z,99931.75
2022-08-10T02:12:08.312Z,99932.50
2022-08-10T02:13:14.805Z,99936.13
2022-08-10T02:14:22.601Z,99931.75
2022-08-10T02:15:29.000Z,99926.44
2022-08-10T02:16:32.646Z,99932.59
2022-08-10T02:17:57.625Z,99938.13
2022-08-10T02:19:02.379Z,99939.38
2022-08-10T02:20:18.142Z,99931.38
2022-08-10T02:21:22.553Z,99941.06
2022-08-10T02:22:36.659Z,99933.34
2022-08-10T02:23:43.218Z,99941.31
2022-08-10T02:24:47.017Z,99937.22
2022-08-10T02:25:51.913Z,99939.88
2022-08-10T02:26:58.008Z,99937.13
2022-08-10T02:28:04.436Z,99939.78
2022-08-10T02:29:08.717Z,99932.88
2022-08-10T02:30:12.641Z,99926.69
2022-08-10T02:31:18.513Z,99931.00
2022-08-10T02:32:37.798Z,99943.50
2022-08-10T02:33:56.642Z,99932.97
2022-08-10T02:35:03.062Z,99937.44
2022-08-10T02:36:08.798Z,99933.91
2022-08-10T02:37:13.505Z,99934.97
2022-08-10T02:38:19.993Z,99940.28
2022-08-10T02:39:24.640Z,99939.41
2022-08-10T02:45:02.450Z,99935.16
2022-08-10T02:45:20.243Z,99943.03
2022-08-10T02:45:25.867Z,99940.38
2022-08-10T02:45:30.720Z,99930.69
2022-08-10T02:46:41.819Z,99934.69
2022-08-10T02:47:52.799Z,99937.44
2022-08-10T02:49:03.475Z,99934.22
2022-08-10T02:50:27.464Z,99934.88
2022-08-10T02:52:08.190Z,99940.09
2022-08-10T02:53:54.810Z,99930.50
2022-08-10T02:54:57.423Z,99945.13
2022-08-10T02:56:12.339Z,99941.03
2022-08-10T02:57:22.937Z,99947.19
2022-08-10T02:58:33.566Z,99946.44
2022-08-10T02:59:44.500Z,99943.78
2022-08-10T03:00:50.974Z,99944.06
2022-08-10T03:01:57.720Z,99950.16
2022-08-10T03:03:01.973Z,99943.13
2022-08-10T03:04:16.504Z,99946.06
2022-08-10T03:05:21.776Z,99949.59
2022-08-10T03:06:30.413Z,99950.34
2022-08-10T03:07:54.038Z,99955.81
2022-08-10T03:08:58.399Z,99941.81
2022-08-10T03:10:02.324Z,99945.59
2022-08-10T03:11:10.071Z,99951.75
2022-08-10T03:12:36.536Z,99941.81
2022-08-10T03:13:37.821Z,99941.19
2022-08-10T03:14:41.832Z,99940.28
2022-08-10T03:15:46.181Z,99948.34
2022-08-10T03:16:50.809Z,99946.63
2022-08-10T03:17:58.335Z,99940.53
2022-08-10T03:19:05.174Z,99942.34
2022-08-10T03:20:38.400Z,99942.47
2022-08-10T03:21:32.349Z,99945.94
2022-08-10T03:22:36.329Z,99947.25
2022-08-10T03:23:41.366Z,99948.22
2022-08-10T03:24:45.629Z,99945.66
2022-08-10T03:25:53.833Z,99940.34
2022-08-10T03:26:57.764Z,99942.44
2022-08-10T03:28:00.911Z,99944.13
2022-08-10T03:29:04.814Z,99934.38
2022-08-10T03:30:31.705Z,99945.06
2022-08-10T03:31:33.001Z,99946.22
2022-08-10T03:32:36.137Z,99952.66
2022-08-10T03:33:41.272Z,99957.19
2022-08-10T03:34:44.046Z,99942.38
2022-08-10T03:36:42.926Z,99944.84
2022-08-10T03:37:08.645Z,99944.03
2022-08-10T03:38:11.018Z,99956.69
2022-08-10T03:39:13.673Z,99941.88
2022-08-10T03:40:16.171Z,99956.13
2022-08-10T03:41:23.744Z,99958.78
2022-08-10T03:42:28.545Z,99956.28
2022-08-10T03:43:31.431Z,99963.50
2022-08-10T03:44:35.938Z,99952.28
2022-08-10T03:45:48.478Z,99954.69
2022-08-10T03:47:01.057Z,99957.34
2022-08-10T03:48:05.519Z,99955.53
2022-08-10T03:49:09.202Z,99959.16
2022-08-10T03:50:27.943Z,99951.28
2022-08-10T03:51:37.115Z,99955.47
2022-08-10T03:52:39.686Z,99960.00
2022-08-10T03:54:02.759Z,99963.66
2022-08-10T03:55:05.407Z,99956.38
2022-08-10T03:56:30.017Z,99962.72
2022-08-10T03:57:31.028Z,99964.78
2022-08-10T03:58:33.755Z,99968.28
2022-08-10T03:59:36.977Z,99960.25
2022-08-10T04:00:40.501Z,99971.56
2022-08-10T04:02:52.387Z,99962.78
2022-08-10T04:03:09.647Z,99971.13
2022-08-10T04:04:15.480Z,99981.91
2022-08-10T04:05:21.548Z,99984.47
2022-08-10T04:06:24.030Z,99989.22
2022-08-10T04:07:26.867Z,99976.09
2022-08-10T04:08:29.347Z,99982.06
2022-08-10T04:09:54.499Z,99982.59
2022-08-10T04:10:57.204Z,99986.25
2022-08-10T04:11:59.787Z,99975.72
2022-08-10T04:13:02.280Z,99980.94
2022-08-10T04:14:04.728Z,99982.94
2022-08-10T04:15:07.492Z,99979.16
2022-08-10T04:16:09.941Z,99984.81
2022-08-10T04:17:14.150Z,99976.09
2022-08-10T04:18:16.622Z,99979.72
2022-08-10T04:19:20.210Z,99972.59
2022-08-10T04:20:51.846Z,99971.47
2022-08-10T04:22:05.855Z,99983.53
2022-08-10T04:23:12.221Z,99979.25
2022-08-10T04:24:26.995Z,99974.63
2022-08-10T04:25:36.309Z,99973.53
2022-08-10T04:26:39.815Z,99974.97
2022-08-10T04:27:43.302Z,99974.78
2022-08-10T04:28:45.756Z,99978.03
2022-08-10T04:29:50.681Z,99976.47
2022-08-10T04:30:55.921Z,99974.38
2022-08-10T04:32:00.398Z,99971.97
2022-08-10T04:33:05.369Z,99962.44
2022-08-10T04:34:08.691Z,99972.34
2022-08-10T04:35:12.265Z,99964.88
2022-08-10T04:36:16.937Z,99962.34
2022-08-10T04:37:21.418Z,99957.34
2022-08-10T04:38:26.355Z,99953.19
2022-08-10T04:39:29.367Z,99959.78
2022-08-10T04:40:31.902Z,99964.78
2022-08-10T04:41:35.916Z,99967.22
2022-08-10T04:42:38.553Z,99966.66
2022-08-10T04:43:40.927Z,99963.44
2022-08-10T04:44:43.614Z,99968.19
2022-08-10T04:45:48.866Z,99967.34
2022-08-10T04:46:55.782Z,99967.63
2022-08-10T04:48:03.194Z,99957.59
2022-08-10T04:49:05.774Z,99957.66
2022-08-10T04:50:28.054Z,99967.22
2022-08-10T04:51:30.329Z,99960.69
2022-08-10T04:52:33.028Z,99968.19
2022-08-10T04:54:05.534Z,99958.69
2022-08-10T04:54:57.828Z,99961.84
2022-08-10T04:56:00.264Z,99955.66
2022-08-10T04:57:02.755Z,99957.31
2022-08-10T04:58:05.298Z,99958.16
2022-08-10T04:59:10.322Z,99957.97
2022-08-10T05:00:19.203Z,99958.34
2022-08-10T05:01:24.772Z,99961.16
2022-08-10T05:02:38.867Z,99960.81
2022-08-10T05:04:35.660Z,99960.63
2022-08-10T05:05:04.238Z,99957.25
2022-08-10T05:06:06.949Z,99954.78
2022-08-10T05:07:12.198Z,99958.31
2022-08-10T05:08:19.427Z,99964.25
2022-08-10T05:09:21.860Z,99955.91
2022-08-10T05:10:24.426Z,99957.47
2022-08-10T05:11:26.705Z,99960.81
2022-08-10T05:12:29.465Z,99954.78
2022-08-10T05:13:32.320Z,99963.25
2022-08-10T05:14:35.168Z,99955.34
2022-08-10T05:15:37.739Z,99953.56
2022-08-10T05:16:39.986Z,99960.56
2022-08-10T05:18:03.246Z,99964.59
2022-08-10T05:19:05.504Z,99963.25
2022-08-10T05:20:10.242Z,99968.09
2022-08-10T05:21:12.710Z,99953.34
2022-08-10T05:22:37.733Z,99966.63
2022-08-10T05:23:40.292Z,99972.34
2022-08-10T05:24:42.702Z,99969.44
2022-08-10T05:25:45.017Z,99971.66
2022-08-10T05:27:00.251Z,99964.25
2022-08-10T05:28:09.735Z,99967.31
2022-08-10T05:29:12.067Z,99969.31
2022-08-10T05:30:19.070Z,99964.59
2022-08-10T05:31:22.445Z,99972.41
2022-08-10T05:32:26.807Z,99970.78
2022-08-10T05:33:30.020Z,99973.72
2022-08-10T05:34:32.293Z,99960.44
2022-08-10T05:35:51.945Z,99977.19
2022-08-10T05:36:58.275Z,99973.34
2022-08-10T05:38:11.817Z,99978.53
2022-08-10T05:39:18.721Z,99981.63
2022-08-10T05:40:31.695Z,99984.38
2022-08-10T05:41:35.344Z,99988.06
2022-08-10T05:42:38.054Z,99984.78
2022-08-10T05:43:41.052Z,99984.38
2022-08-10T05:44:44.739Z,99988.38
2022-08-10T05:46:16.756Z,99987.91
2022-08-10T05:47:12.866Z,99984.31
2022-08-10T05:48:41.956Z,99977.63
2022-08-10T05:49:40.548Z,99983.16
2022-08-10T05:50:44.269Z,99985.44
2022-08-10T05:51:48.091Z,99985.47
2022-08-10T05:52:52.315Z,99986.69
2022-08-10T05:54:01.104Z,99987.19
2022-08-10T05:55:09.765Z,99984.97
2022-08-10T05:56:12.606Z,99992.06
2022-08-10T05:57:16.653Z,99991.91
2022-08-10T05:58:19.681Z,99995.97
2022-08-10T06:00:35.341Z,99983.91
2022-08-10T06:01:00.727Z,99996.88
2022-08-10T06:02:31.681Z,99996.41
2022-08-10T06:03:47.696Z,99995.50
2022-08-10T06:04:52.956Z,99988.03
2022-08-10T06:05:59.389Z,99990.97
2022-08-10T06:07:07.683Z,99993.94
2022-08-10T06:08:23.074Z,99996.63
2022-08-10T06:09:28.691Z,99992.56
2022-08-10T06:10:35.483Z,99999.91
2022-08-10T06:12:24.611Z,99993.72
2022-08-10T06:13:29.950Z,99989.41
2022-08-10T06:14:59.969Z,99996.34
2022-08-10T06:16:09.908Z,99994.59
2022-08-10T06:17:13.101Z,100003.59
2022-08-10T06:18:15.959Z,100007.13
2022-08-10T06:19:19.238Z,100005.06
2022-08-10T06:20:22.136Z,99994.41
2022-08-10T06:21:25.232Z,100000.91
2022-08-10T06:22:30.161Z,100003.16
2022-08-10T06:23:33.536Z,99986.84
2022-08-10T06:25:04.582Z,100002.63
2022-08-10T06:26:11.295Z,99990.81
2022-08-10T06:27:16.872Z,99999.22
2022-08-10T06:28:25.877Z,99991.41
2022-08-10T06:29:32.627Z,99996.25
2022-08-10T06:30:37.120Z,99996.03
2022-08-10T06:31:47.982Z,99996.69
2022-08-10T06:32:53.569Z,99991.09
2022-08-10T06:33:57.098Z,99990.88
2022-08-10T06:35:01.408Z,99995.81
2022-08-10T06:36:07.693Z,99998.75
2022-08-10T06:37:12.738Z,100009.88
2022-08-10T06:38:17.139Z,100003.41
2022-08-10T06:39:33.425Z,99998.69
2022-08-10T06:40:40.767Z,99998.78
2022-08-10T06:42:01.394Z,99993.28
2022-08-10T06:43:15.670Z,99989.28
2022-08-10T06:44:26.504Z,100000.66
2022-08-10T06:45:39.667Z,99994.13
2022-08-10T06:46:48.423Z,99996.56
2022-08-10T06:48:28.125Z,99993.22
2022-08-10T06:49:33.171Z,99994.75
2022-08-10T06:50:56.033Z,99993.41
2022-08-10T06:52:02.752Z,99989.88
2022-08-10T06:53:18.431Z,99985.81
2022-08-10T06:54:27.466Z,100000.38
2022-08-10T06:55:40.202Z,99999.47
2022-08-10T06:57:16.458Z,99991.47
2022-08-10T06:58:23.739Z,99991.97
2022-08-10T06:59:41.646Z,99996.13
2022-08-10T07:00:45.650Z,99992.78
2022-08-10T07:01:53.364Z,99990.88
2022-08-10T07:03:01.952Z,99999.47
2022-08-10T07:04:15.995Z,99994.50
2022-08-10T07:05:25.211Z,100002.38
2022-08-10T07:06:29.687Z,100007.84
2022-08-10T07:07:37.502Z,99997.09
2022-08-10T07:08:41.750Z,99999.34
2022-08-10T07:09:45.827Z,100003.84
2022-08-10T07:10:49.836Z,100006.31
2022-08-10T07:11:53.395Z,100001.56
2022-08-10T07:13:03.047Z,99997.53
2022-08-10T07:14:15.316Z,99998.28
2022-08-10T07:15:23.115Z,100000.41
2022-08-10T07:16:48.041Z,100003.53
2022-08-10T07:17:55.088Z,100005.50
2022-08-10T07:19:01.786Z,100005.03
2022-08-10T07:20:12.120Z,99999.97
2022-08-10T07:21:18.087Z,99994.34
2022-08-10T07:23:01.352Z,99992.78
2022-08-10T07:23:58.542Z,100000.09
2022-08-10T07:25:06.934Z,99999.97
2022-08-10T07:26:11.600Z,99995.19
2022-08-10T07:27:15.812Z,99990.94
2022-08-10T07:28:21.037Z,99990.00
2022-08-10T07:29:53.290Z,99987.91
2022-08-10T07:30:53.618Z,99995.13
2022-08-10T07:31:57.971Z,99993.41
2022-08-10T07:33:02.948Z,99987.75
2022-08-10T07:34:07.303Z,99995.94
2022-08-10T07:35:14.259Z,99992.06
2022-08-10T07:36:21.820Z,99994.88
2022-08-10T07:37:27.755Z,99991.09
2022-08-10T07:38:33.502Z,99988.28
2022-08-10T07:39:58.499Z,99982.63
2022-08-10T07:41:04.041Z,99989.28
2022-08-10T07:42:10.143Z,99990.31
2022-08-10T07:43:15.246Z,99980.78
2022-08-10T07:44:19.296Z,99984.41
2022-08-10T07:45:22.245Z,99986.84
2022-08-10T07:46:28.336Z,99989.59
2022-08-10T07:47:52.396Z,99974.59
2022-08-10T07:49:19.838Z,99990.13
2022-08-10T07:50:33.124Z,99984.00
2022-08-10T07:51:40.219Z,99987.56
2022-08-10T07:52:44.108Z,99979.34
2022-08-10T07:53:52.008Z,99967.78
2022-08-10T07:54:56.568Z,99980.63
2022-08-10T07:56:16.822Z,99973.47
2022-08-10T07:57:32.464Z,99983.41
2022-08-10T07:58:52.605Z,99987.66
2022-08-10T08:00:06.841Z,99984.34
2022-08-10T08:01:24.892Z,99984.28
2022-08-10T08:02:44.762Z,99985.50
2022-08-10T08:04:10.696Z,99986.88
2022-08-10T08:05:55.106Z,99991.34
2022-08-10T08:06:49.537Z,99986.28
2022-08-10T08:07:55.222Z,99984.13
2022-08-10T08:09:00.686Z,99986.72
2022-08-10T08:10:05.300Z,99988.56
2022-08-10T08:11:25.745Z,99982.06
2022-08-10T08:12:36.642Z,99988.78
2022-08-10T08:13:40.663Z,99966.50
2022-08-10T08:14:44.686Z,99987.50
2022-08-10T08:16:18.352Z,99985.88
2022-08-10T08:17:24.762Z,99982.75
2022-08-10T08:18:41.906Z,99988.56
2022-08-10T08:20:04.785Z,100005.03
2022-08-10T08:24:08.086Z,99989.69
2022-08-10T08:24:30.497Z,99988.22
2022-08-10T08:24:30.561Z,99988.25
2022-08-10T08:25:34.276Z,99978.34
2022-08-10T08:26:39.555Z,99992.47
2022-08-10T08:27:47.618Z,99981.63
2022-08-10T08:28:52.486Z,99975.97
2022-08-10T08:29:55.946Z,99987.59
2022-08-10T08:30:59.412Z,99990.25
2022-08-10T08:32:04.522Z,99991.03
2022-08-10T08:33:09.925Z,99982.31
2022-08-10T08:34:27.875Z,99988.66
2022-08-10T08:35:32.766Z,99980.03
2022-08-10T08:36:39.975Z,99990.81
2022-08-10T08:38:32.123Z,99984.47
2022-08-10T08:39:12.578Z,99987.84
2022-08-10T08:40:22.251Z,99982.72
2022-08-10T08:41:50.921Z,99989.41
2022-08-10T08:43:28.470Z,99979.81
2022-08-10T08:44:54.627Z,99984.56
2022-08-10T08:46:28.701Z,99977.34
2022-08-10T08:48:04.397Z,99979.31
2022-08-10T08:50:05.210Z,99987.94
2022-08-10T08:50:57.698Z,99988.53
2022-08-10T08:52:18.591Z,99970.25
2022-08-10T08:54:01.077Z,99988.84
2022-08-10T08:56:04.063Z,99984.75
2022-08-10T08:56:48.275Z,99977.50
2022-08-10T08:58:23.578Z,99975.63
2022-08-10T08:59:47.252Z,99969.78
2022-08-10T09:01:05.547Z,99963.69
2022-08-10T09:02:55.789Z,99974.13
2022-08-10T09:04:22.630Z,99963.22
2022-08-10T09:06:03.667Z,99966.47
2022-08-10T09:08:00.291Z,99963.41
2022-08-10T09:09:23.428Z,99956.41
2022-08-10T09:10:51.268Z,99958.44
2022-08-10T09:12:08.425Z,99954.97
2022-08-10T09:13:37.028Z,99948.97
2022-08-10T09:14:50.159Z,99958.50
2022-08-10T09:16:17.146Z,99954.25
2022-08-10T09:18:02.552Z,99955.09
2022-08-10T09:19:31.843Z,99955.34
2022-08-10T09:20:40.831Z,99949.03
2022-08-10T09:21:59.132Z,99956.78
2022-08-10T09:24:04.919Z,99944.69
2022-08-10T09:24:47.160Z,99947.63
2022-08-10T09:25:55.415Z,99954.25
2022-08-10T09:27:04.211Z,99947.31
2022-08-10T09:28:17.087Z,99933.81
2022-08-10T09:29:26.748Z,99934.59
2022-08-10T09:30:40.555Z,99939.03
2022-08-10T09:32:54.356Z,99927.66
2022-08-10T09:36:22.799Z,99935.84
2022-08-10T09:36:26.785Z,99942.03
2022-08-10T09:36:31.701Z,99944.75
2022-08-10T09:38:01.706Z,99945.19
2022-08-10T09:40:06.667Z,99945.72
2022-08-10T09:41:24.487Z,99944.59
2022-08-10T09:42:44.128Z,99946.03
2022-08-10T09:43:57.204Z,99949.09
2022-08-10T09:45:12.687Z,99938.69
2022-08-10T09:46:38.642Z,99946.84
2022-08-10T09:48:02.793Z,99948.03
2022-08-10T09:49:17.355Z,99950.66
2022-08-10T09:51:05.455Z,99936.41
2022-08-10T09:52:18.213Z,99938.66
2022-08-10T09:53:35.170Z,99945.31
2022-08-10T09:54:58.129Z,99954.94
2022-08-10T09:56:17.606Z,99954.94
2022-08-10T09:57:44.098Z,99943.28
2022-08-10T09:59:26.816Z,99936.69
2022-08-10T10:00:41.872Z,99941.03
2022-08-10T10:02:15.515Z,99970.72
2022-08-10T10:03:29.770Z,99945.06
2022-08-10T10:04:53.436Z,99944.25
2022-08-10T10:06:18.507Z,99938.09
2022-08-10T10:07:28.757Z,99937.25
2022-08-10T10:08:58.270Z,99946.78
2022-08-10T10:10:19.797Z,99933.00
2022-08-10T10:11:35.489Z,99950.13
2022-08-10T10:13:01.973Z,99930.84
2022-08-10T10:14:26.842Z,99931.03
2022-08-10T10:15:47.514Z,99930.75
2022-08-10T10:17:04.304Z,99915.38
2022-08-10T10:18:14.383Z,99931.13
2022-08-10T10:19:54.269Z,99924.63
2022-08-10T10:21:08.056Z,99921.94
2022-08-10T10:22:33.430Z,99936.81
2022-08-10T10:24:20.261Z,99930.44
2022-08-10T10:25:51.531Z,99920.56
2022-08-10T10:27:03.617Z,99937.19
2022-08-10T10:28:11.380Z,99914.03
2022-08-10T10:29:57.151Z,99913.56
2022-08-10T10:31:44.744Z,99921.91
2022-08-10T10:33:17.502Z,99934.69
2022-08-10T10:34:55.354Z,99925.56
2022-08-10T10:36:00.002Z,99902.44
2022-08-10T10:37:06.544Z,99901.91
2022-08-10T10:38:12.552Z,99900.53
2022-08-10T10:39:26.092Z,99913.28
2022-08-10T10:41:01.565Z,99905.16
2022-08-10T10:42:46.874Z,99916.66
2022-08-10T10:44:31.685Z,99912.03
2022-08-10T10:46:04.553Z,99898.97
2022-08-10T10:47:19.113Z,99900.53
2022-08-10T10:48:48.087Z,99887.00
2022-08-10T10:50:08.967Z,99900.72
2022-08-10T10:51:36.819Z,99906.59
2022-08-10T10:53:03.978Z,99891.09
2022-08-10T10:54:32.732Z,99887.50
2022-08-10T10:56:15.133Z,99884.72
2022-08-10T10:58:00.478Z,99891.59
2022-08-10T10:59:56.345Z,99888.38
2022-08-10T11:01:26.467Z,99885.47
2022-08-10T11:02:44.019Z,99882.66
2022-08-10T11:04:15.945Z,99877.28
2022-08-10T11:05:48.194Z,99881.50
2022-08-10T11:07:21.815Z,99886.25
2022-08-10T11:08:31.281Z,99890.00
2022-08-10T11:10:08.696Z,99890.59
2022-08-10T11:11:27.038Z,99882.44
2022-08-10T11:12:50.819Z,99882.44
2022-08-10T11:14:26.588Z,99897.81
2022-08-10T11:15:49.568Z,99885.50
2022-08-10T11:16:58.605Z,99890.19
2022-08-10T11:18:10.277Z,99882.47
2022-08-10T11:20:00.489Z,99891.41
2022-08-10T11:21:30.777Z,99887.44
2022-08-10T11:22:36.911Z,99884.75
2022-08-10T11:24:48.457Z,99890.41
2022-08-10T11:25:31.961Z,99881.22
2022-08-10T11:26:43.524Z,99876.34
2022-08-10T11:28:10.662Z,99872.00
2022-08-10T11:29:25.261Z,99869.13
2022-08-10T11:30:44.846Z,99888.25
2022-08-10T11:32:03.241Z,99880.56
2022-08-10T11:33:32.742Z,99877.31
2022-08-10T11:35:11.236Z,99881.72
2022-08-10T11:36:31.296Z,99875.06
2022-08-10T11:38:31.468Z,99875.00
2022-08-10T11:39:21.628Z,99856.09
2022-08-10T11:40:36.275Z,99874.75
2022-08-10T11:42:09.983Z,99878.59
2022-08-10T11:43:27.400Z,99866.25
2022-08-10T11:44:57.654Z,99862.34
2022-08-10T11:46:27.989Z,99852.75
2022-08-10T11:47:39.278Z,99866.13
2022-08-10T11:48:54.869Z,99857.16
2022-08-10T11:50:11.517Z,99859.00
2022-08-10T11:51:30.566Z,99860.13
2022-08-10T11:53:14.519Z,99864.09
2022-08-10T11:54:34.919Z,99857.16
2022-08-10T11:55:37.482Z,99877.56
2022-08-10T11:56:48.753Z,99864.94
2022-08-10T11:57:55.962Z,99868.72
2022-08-10T11:59:17.653Z,99864.53
2022-08-10T12:00:20.486Z,99863.88
2022-08-10T12:01:30.427Z,99870.63
2022-08-10T12:02:40.904Z,99871.25
2022-08-10T12:03:45.675Z,99859.81
2022-08-10T12:04:52.688Z,99857.47
2022-08-10T12:05:56.000Z,99853.06
2022-08-10T12:07:00.350Z,99859.84
2022-08-10T12:10:07.419Z,99852.00
2022-08-10T12:10:08.982Z,99856.06
2022-08-10T12:10:51.931Z,99839.19
2022-08-10T12:11:54.367Z,99845.16
2022-08-10T12:13:22.448Z,99833.81
2022-08-10T12:14:32.369Z,99842.06
2022-08-10T12:16:05.288Z,99841.22
2022-08-10T12:17:24.097Z,99851.91
2022-08-10T12:18:46.342Z,99846.47
2022-08-10T12:20:09.884Z,99832.13
2022-08-10T12:21:21.596Z,99830.56
2022-08-10T12:22:31.620Z,99837.00
2022-08-10T12:23:48.461Z,99836.38
2022-08-10T12:25:11.237Z,99830.22
2022-08-10T12:26:54.944Z,99842.56
2022-08-10T12:28:05.263Z,99833.25
2022-08-10T12:29:25.422Z,99831.78
2022-08-10T12:30:34.173Z,99840.34
2022-08-10T12:31:58.068Z,99829.53
2022-08-10T12:33:32.987Z,99837.31
2022-08-10T12:35:27.824Z,99832.13
2022-08-10T12:36:41.434Z,99842.72
2022-08-10T12:37:43.834Z,99839.25
2022-08-10T12:39:01.782Z,99827.53
2022-08-10T12:41:59.814Z,99818.75
2022-08-10T12:43:13.230Z,99824.69
2022-08-10T12:44:53.289Z,99817.88
2022-08-10T12:46:14.329Z,99823.75
2022-08-10T12:47:28.015Z,99824.19
2022-08-10T12:48:43.900Z,99824.53
2022-08-10T12:50:29.322Z,99819.94
2022-08-10T12:51:33.548Z,99813.88
2022-08-10T12:52:50.259Z,99829.59
2022-08-10T12:54:07.008Z,99814.19
2022-08-10T12:55:12.351Z,99819.28
2022-08-10T12:56:45.467Z,99813.00
2022-08-10T12:57:53.900Z,99816.91
2022-08-10T12:59:01.314Z,99806.75
2022-08-10T13:00:09.921Z,99803.91
2022-08-10T13:01:24.885Z,99803.72
2022-08-10T13:02:45.225Z,99802.84
2022-08-10T13:04:22.663Z,99800.19
2022-08-10T13:05:25.500Z,99798.50
2022-08-10T13:06:30.495Z,99793.91
2022-08-10T13:08:04.019Z,99797.63
2022-08-10T13:09:08.674Z,99790.88
2022-08-10T13:10:17.045Z,99812.66
2022-08-10T13:12:37.014Z,99788.47
2022-08-10T13:12:52.370Z,99792.41
2022-08-10T13:14:01.955Z,99783.91
2022-08-10T13:15:45.621Z,99801.47
2022-08-10T13:16:33.670Z,99797.81
2022-08-10T13:17:42.763Z,99798.97
2022-08-10T13:18:46.915Z,99790.56
2022-08-10T13:19:55.337Z,99786.63
2022-08-10T13:21:20.074Z,99781.34
2022-08-10T13:22:27.918Z,99791.19
2022-08-10T13:23:34.013Z,99777.53
2022-08-10T13:24:55.779Z,99776.84
2022-08-10T13:26:03.577Z,99775.13
2022-08-10T13:27:25.584Z,99764.47
2022-08-10T13:28:45.300Z,99754.59
2022-08-10T13:30:03.440Z,99771.53
2022-08-10T13:31:16.716Z,99780.03
2022-08-10T13:32:27.302Z,99769.50
2022-08-10T13:34:39.289Z,99759.97
2022-08-10T13:35:07.047Z,99755.50
2022-08-10T13:36:10.860Z,99759.06
2022-08-10T13:37:21.223Z,99767.66
2022-08-10T13:38:25.329Z,99768.53
2022-08-10T13:39:59.714Z,99769.03
2022-08-10T13:41:04.594Z,99759.84
2022-08-10T13:42:11.224Z,99764.75
2022-08-10T13:43:19.834Z,99770.75
2022-08-10T13:44:42.068Z,99750.13
2022-08-10T13:45:50.043Z,99751.53
2022-08-10T13:46:55.754Z,99765.28
2022-08-10T13:48:14.464Z,99760.22
2022-08-10T13:49:19.377Z,99767.28
2022-08-10T13:50:33.733Z,99759.75
2022-08-10T13:51:57.427Z,99752.50
2022-08-10T13:53:01.753Z,99751.25
2022-08-10T13:54:07.697Z,99750.84
2022-08-10T13:55:16.658Z,99747.81
2022-08-10T13:56:21.286Z,99745.97
2022-08-10T13:57:30.284Z,99748.19
2022-08-10T13:58:36.414Z,99742.47
2022-08-10T14:00:35.341Z,99751.06
2022-08-10T14:01:36.932Z,99736.81
2022-08-10T14:02:41.869Z,99737.72
2022-08-10T14:03:46.127Z,99741.06
2022-08-10T14:04:49.686Z,99748.31
2022-08-10T14:05:55.130Z,99741.41
2022-08-10T14:07:00.630Z,99741.63
2022-08-10T14:08:05.801Z,99732.97
2022-08-10T14:09:12.932Z,99731.94
2022-08-10T14:10:17.882Z,99736.25
2022-08-10T14:11:42.337Z,99727.16
2022-08-10T14:12:47.309Z,99722.13
2022-08-10T14:13:57.035Z,99731.69
2022-08-10T14:15:05.212Z,99743.44
2022-08-10T14:16:10.868Z,99742.53
2022-08-10T14:17:17.857Z,99744.19
2022-08-10T14:18:21.542Z,99748.69
2022-08-10T14:19:27.650Z,99739.31
2022-08-10T14:20:33.661Z,99742.03
2022-08-10T14:21:41.112Z,99735.06